createdAt,value
2023-04-04T00:02:12.469Z,99439.00
2023-04-04T00:04:58.767Z,99444.41
2023-04-04T00:07:42.637Z,99432.34
2023-04-04T00:10:26.445Z,99403.88
2023-04-04T00:13:10.660Z,99391.44
2023-04-04T00:15:55.007Z,99381.75
2023-04-04T00:18:38.969Z,99359.16
2023-04-04T00:21:25.649Z,99380.41
2023-04-04T00:24:09.999Z,99368.25
2023-04-04T00:26:54.635Z,99356.31
2023-04-04T00:29:38.657Z,99356.88
2023-04-04T00:32:22.775Z,99347.28
2023-04-04T00:35:07.324Z,99344.81
2023-04-04T00:37:52.492Z,99362.91
2023-04-04T00:40:42.463Z,99338.63
2023-04-04T00:43:27.738Z,99352.56
2023-04-04T00:46:15.164Z,99337.59
2023-04-04T00:49:00.053Z,99335.31
2023-04-04T00:51:44.348Z,99327.25
2023-04-04T00:54:31.315Z,99327.06
2023-04-04T00:57:16.624Z,99309.44
2023-04-04T01:00:01.995Z,99308.47
2023-04-04T01:02:48.264Z,99280.72
2023-04-04T01:05:33.364Z,99311.97
2023-04-04T01:08:22.742Z,99301.44
2023-04-04T01:11:08.577Z,99286.47
2023-04-04T01:13:53.312Z,99289.72
2023-04-04T01:16:37.435Z,99282.75
2023-04-04T01:19:30.095Z,99269.84
2023-04-04T01:22:15.996Z,99276.47
2023-04-04T01:25:03.029Z,99256.59
2023-04-04T01:27:49.135Z,99267.31
2023-04-04T01:30:38.236Z,99256.41
2023-04-04T01:33:28.048Z,99262.59
2023-04-04T01:36:18.268Z,99261.13
2023-04-04T01:39:11.273Z,99238.53
2023-04-04T01:41:57.746Z,99278.25
2023-04-04T01:44:43.721Z,99259.06
2023-04-04T01:47:29.367Z,99247.97
2023-04-04T01:50:13.735Z,99250.78
2023-04-04T01:52:57.802Z,99226.06
2023-04-04T01:55:42.571Z,99225.13
2023-04-04T01:58:26.904Z,99218.78
2023-04-04T02:01:12.866Z,99214.47
2023-04-04T02:03:57.011Z,99199.06
2023-04-04T02:06:41.564Z,99197.56
2023-04-04T02:09:25.502Z,99179.88
2023-04-04T02:12:10.173Z,99156.75
2023-04-04T02:14:54.044Z,99171.78
2023-04-04T02:17:40.142Z,99165.00
2023-04-04T02:20:24.277Z,99123.66
2023-04-04T02:23:08.272Z,99141.59
2023-04-04T02:25:52.859Z,99187.97
2023-04-04T02:28:36.882Z,99143.28
2023-04-04T02:31:20.896Z,99182.41
2023-04-04T02:34:06.714Z,99180.41
2023-04-04T02:36:51.893Z,99167.84
2023-04-04T02:39:36.551Z,99179.22
2023-04-04T02:42:20.584Z,99197.72
2023-04-04T02:45:05.086Z,99162.94
2023-04-04T02:47:51.952Z,99172.53
2023-04-04T02:50:42.562Z,99173.50
2023-04-04T02:53:29.762Z,99155.22
2023-04-04T02:56:19.810Z,99177.06
2023-04-04T02:59:05.122Z,99147.31
2023-04-04T03:01:48.997Z,99156.94
2023-04-04T03:04:33.403Z,99145.06
2023-04-04T03:07:19.018Z,99143.00
2023-04-04T03:10:02.857Z,99140.56
2023-04-04T03:12:47.234Z,99139.06
2023-04-04T03:15:31.875Z,99140.38
2023-04-04T03:18:16.218Z,99136.53
2023-04-04T03:21:00.344Z,99079.44
2023-04-04T03:23:46.031Z,99073.00
2023-04-04T03:26:30.146Z,99141.41
2023-04-04T03:29:14.539Z,99120.91
2023-04-04T03:31:58.616Z,99094.63
2023-04-04T03:34:42.737Z,99127.84
2023-04-04T03:37:26.659Z,99145.19
2023-04-04T03:40:12.635Z,99115.59
2023-04-04T03:42:56.542Z,99127.38
2023-04-04T03:45:40.733Z,99131.97
2023-04-04T03:48:25.716Z,99119.63
2023-04-04T03:51:09.669Z,99103.84
2023-04-04T03:53:54.921Z,99138.78
2023-04-04T03:56:40.238Z,99135.84
2023-04-04T03:59:24.315Z,99145.22
2023-04-04T04:02:08.914Z,99149.41
2023-04-04T04:04:53.251Z,99153.84
2023-04-04T04:07:37.087Z,99121.31
2023-04-04T04:10:21.470Z,99143.16
2023-04-04T04:13:06.707Z,99147.63
2023-04-04T04:15:51.368Z,99125.63
2023-04-04T04:18:39.303Z,99124.50
2023-04-04T04:21:28.830Z,99117.16
2023-04-04T04:24:12.642Z,99122.13
2023-04-04T04:26:56.510Z,99075.03
2023-04-04T04:29:41.721Z,99110.59
2023-04-04T04:32:27.402Z,99089.91
2023-04-04T04:35:11.811Z,99078.66
2023-04-04T04:37:57.049Z,99077.13
2023-04-04T04:40:41.225Z,99069.25
2023-04-04T04:43:32.316Z,99053.91
2023-04-04T04:46:18.261Z,99044.63
2023-04-04T04:49:02.124Z,99044.44
2023-04-04T04:51:49.313Z,99073.59
2023-04-04T04:54:35.270Z,99044.28
2023-04-04T04:57:19.275Z,99020.19
2023-04-04T05:00:04.563Z,99028.84
2023-04-04T05:02:50.980Z,99045.78
2023-04-04T05:05:44.343Z,99083.25
2023-04-04T05:08:30.737Z,99106.25
2023-04-04T05:11:21.692Z,99101.25
2023-04-04T05:14:06.836Z,99096.72
2023-04-04T05:16:56.009Z,99123.34
2023-04-04T05:19:46.469Z,99147.16
2023-04-04T05:22:34.434Z,99130.97
2023-04-04T05:25:18.362Z,99143.19
2023-04-04T05:28:04.028Z,99157.00
2023-04-04T05:30:49.123Z,99145.97
2023-04-04T05:33:36.939Z,99155.59
2023-04-04T05:36:29.499Z,99126.81
2023-04-04T05:39:18.713Z,99139.44
2023-04-04T05:42:14.876Z,99146.41
2023-04-04T05:45:05.208Z,99138.88
2023-04-04T05:47:49.062Z,99145.25
2023-04-04T05:50:32.806Z,99125.13
2023-04-04T05:53:21.252Z,99141.75
2023-04-04T05:56:07.642Z,99147.94
2023-04-04T05:58:52.100Z,99151.25
2023-04-04T06:01:36.657Z,99140.72
2023-04-04T06:04:27.116Z,99164.44
2023-04-04T06:07:12.747Z,99144.59
2023-04-04T06:09:57.894Z,99131.31
2023-04-04T06:12:42.485Z,99143.19
2023-04-04T06:15:27.779Z,99120.13
2023-04-04T06:18:11.664Z,99128.88
2023-04-04T06:20:55.866Z,99134.03
2023-04-04T06:23:40.135Z,99128.00
2023-04-04T06:26:27.035Z,99132.50
2023-04-04T06:29:11.563Z,99145.59
2023-04-04T06:31:58.212Z,99129.97
2023-04-04T06:34:51.290Z,99120.91
2023-04-04T06:37:44.218Z,99125.47
2023-04-04T06:40:34.229Z,99121.88
2023-04-04T06:43:19.832Z,99112.84
2023-04-04T06:46:03.640Z,99108.31
2023-04-04T06:48:47.946Z,99096.56
2023-04-04T06:51:34.871Z,99106.00
2023-04-04T06:54:18.989Z,99079.91
2023-04-04T06:57:03.144Z,99092.06
2023-04-04T06:59:48.372Z,99060.06
2023-04-04T07:02:33.115Z,99051.53
2023-04-04T07:05:18.267Z,99005.66
2023-04-04T07:08:02.400Z,99033.31
2023-04-04T07:10:46.514Z,99041.25
2023-04-04T07:13:30.347Z,99039.88
2023-04-04T07:16:15.739Z,99021.88
2023-04-04T07:18:59.610Z,99005.72
2023-04-04T07:21:43.416Z,99000.66
2023-04-04T07:24:27.298Z,99034.03
2023-04-04T07:27:11.329Z,99064.81
2023-04-04T07:29:55.272Z,99066.06
2023-04-04T07:32:40.685Z,99060.94
2023-04-04T07:35:24.701Z,99051.25
2023-04-04T07:38:08.516Z,99048.13
2023-04-04T07:40:52.353Z,99031.13
2023-04-04T07:43:36.182Z,99014.66
2023-04-04T07:46:20.405Z,99009.94
2023-04-04T07:49:06.107Z,98996.13
2023-04-04T07:51:50.148Z,98990.34
2023-04-04T07:54:33.907Z,98993.28
2023-04-04T07:57:17.710Z,98986.94
2023-04-04T08:00:01.558Z,99020.41
2023-04-04T08:02:46.508Z,99024.31
2023-04-04T08:05:31.643Z,99016.72
2023-04-04T08:08:15.567Z,99012.50
2023-04-04T08:10:59.419Z,98996.44
2023-04-04T08:13:43.434Z,99026.53
2023-04-04T08:16:27.931Z,98970.06
2023-04-04T08:19:12.620Z,98997.03
2023-04-04T08:21:58.041Z,98986.50
2023-04-04T08:24:41.706Z,98986.00
2023-04-04T08:27:25.575Z,99015.59
2023-04-04T08:30:10.296Z,99012.44
2023-04-04T08:32:54.278Z,99008.06
2023-04-04T08:35:38.133Z,99018.59
2023-04-04T08:38:23.478Z,99004.63
2023-04-04T08:41:07.380Z,99021.78
2023-04-04T08:43:54.809Z,99000.69
2023-04-04T08:46:39.221Z,99023.88
2023-04-04T08:49:25.297Z,99028.94
2023-04-04T08:52:12.812Z,99031.50
2023-04-04T08:54:59.529Z,98975.53
2023-04-04T08:57:43.506Z,99027.38
2023-04-04T09:00:28.110Z,99007.66
2023-04-04T09:03:19.005Z,99025.06
2023-04-04T09:06:03.728Z,99027.59
2023-04-04T09:08:48.744Z,98990.28
2023-04-04T09:11:35.952Z,99026.59
2023-04-04T09:14:20.934Z,99034.75
2023-04-04T09:17:04.812Z,98998.97
2023-04-04T09:19:48.608Z,99018.34
2023-04-04T09:22:32.735Z,99052.31
2023-04-04T09:25:17.819Z,99048.53
2023-04-04T09:28:05.588Z,99047.38
2023-04-04T09:30:49.983Z,99054.63
2023-04-04T09:33:34.550Z,99052.25
2023-04-04T09:36:18.829Z,99033.31
2023-04-04T09:39:04.389Z,99049.94
2023-04-04T09:41:48.818Z,99055.38
2023-04-04T09:44:34.609Z,99048.78
2023-04-04T09:50:22.089Z,99064.47
2023-04-04T09:53:06.065Z,99060.06
2023-04-04T09:55:54.433Z,99055.88
2023-04-04T09:58:46.392Z,99057.13
2023-04-04T10:01:39.417Z,99045.50
2023-04-04T10:04:24.771Z,99032.72
2023-04-04T10:07:13.795Z,99005.69
2023-04-04T10:09:58.096Z,99039.66
2023-04-04T10:12:41.843Z,99045.06
2023-04-04T10:15:26.014Z,99049.31
2023-04-04T10:18:12.584Z,99043.69
2023-04-04T10:21:12.289Z,99040.78
2023-04-04T10:24:00.501Z,99020.59
2023-04-04T10:26:44.440Z,99050.19
2023-04-04T10:29:29.030Z,99049.22
2023-04-04T10:32:18.538Z,99051.38
2023-04-04T10:35:07.835Z,99044.28
2023-04-04T10:37:58.866Z,99037.09
2023-04-04T10:40:49.228Z,99019.97
2023-04-04T10:43:36.263Z,99056.34
2023-04-04T10:46:30.892Z,99060.44
2023-04-04T10:49:16.159Z,99061.63
2023-04-04T10:52:02.252Z,99062.31
2023-04-04T10:54:47.980Z,99057.06
2023-04-04T10:57:32.351Z,99051.38
2023-04-04T11:00:19.465Z,99051.22
2023-04-04T11:03:03.632Z,99042.63
2023-04-04T11:05:49.114Z,99057.03
2023-04-04T11:08:37.521Z,99032.06
2023-04-04T11:11:23.142Z,99039.69
2023-04-04T11:14:08.446Z,99048.31
2023-04-04T11:16:53.818Z,99048.97
2023-04-04T11:19:41.135Z,99042.16
2023-04-04T11:22:24.939Z,99045.13
2023-04-04T11:25:31.733Z,99041.47
2023-04-04T11:28:25.756Z,99043.91
2023-04-04T11:31:29.875Z,99041.28
2023-04-04T11:34:14.710Z,99035.41
2023-04-04T11:37:01.863Z,99046.97
2023-04-04T11:39:50.784Z,99015.59
2023-04-04T11:42:39.687Z,99043.19
2023-04-04T11:45:27.214Z,99027.50
2023-04-04T11:48:11.258Z,99043.41
2023-04-04T11:50:55.289Z,99043.63
2023-04-04T11:53:39.462Z,99041.81
2023-04-04T11:56:23.911Z,99034.41
2023-04-04T11:59:11.771Z,99035.41
2023-04-04T12:01:56.392Z,99033.59
2023-04-04T12:04:44.693Z,98994.94
2023-04-04T12:07:30.697Z,99022.19
2023-04-04T12:10:14.758Z,98986.38
2023-04-04T12:13:00.068Z,99024.91
2023-04-04T12:15:45.303Z,99023.56
2023-04-04T12:18:29.128Z,99033.75
2023-04-04T12:21:13.037Z,99024.47
2023-04-04T12:23:57.719Z,99022.69
2023-04-04T12:26:43.304Z,99017.56
2023-04-04T12:29:29.204Z,98994.47
2023-04-04T12:32:15.984Z,99031.28
2023-04-04T12:35:02.844Z,99023.94
2023-04-04T12:37:59.986Z,99028.47
2023-04-04T12:40:46.397Z,98980.34
2023-04-04T12:43:30.751Z,98998.41
2023-04-04T12:46:15.162Z,98979.72
2023-04-04T12:49:01.122Z,99005.22
2023-04-04T12:51:46.067Z,98998.13
2023-04-04T12:54:31.856Z,99002.94
2023-04-04T12:57:20.199Z,98966.91
2023-04-04T13:00:06.733Z,99004.44
2023-04-04T13:02:52.488Z,98992.88
2023-04-04T13:05:39.184Z,98984.50
2023-04-04T13:08:23.352Z,98985.44
2023-04-04T13:11:07.890Z,98964.97
2023-04-04T13:14:02.040Z,99002.31
2023-04-04T13:16:46.081Z,99004.38
2023-04-04T13:19:29.833Z,98999.69
2023-04-04T13:22:15.066Z,98996.81
2023-04-04T13:24:58.931Z,98996.50
2023-04-04T13:27:42.849Z,99002.06
2023-04-04T13:30:28.179Z,99006.31
2023-04-04T13:33:12.221Z,99003.44
2023-04-04T13:35:57.690Z,99009.28
2023-04-04T13:38:43.007Z,99007.38
2023-04-04T13:41:26.911Z,99008.94
2023-04-04T13:44:11.023Z,99008.63
2023-04-04T13:46:54.781Z,99003.91
2023-04-04T13:49:38.490Z,99009.38
2023-04-04T13:52:22.364Z,99000.44
2023-04-04T13:55:08.458Z,99002.00
2023-04-04T13:57:52.540Z,99002.56
2023-04-04T14:00:36.553Z,98999.09
2023-04-04T14:03:20.438Z,99000.44
2023-04-04T14:06:10.246Z,99008.28
2023-04-04T14:08:54.711Z,99008.97
2023-04-04T14:11:39.903Z,99002.69
2023-04-04T14:14:25.061Z,99013.38
2023-04-04T14:17:09.018Z,99011.41
2023-04-04T14:19:52.861Z,99007.69
2023-04-04T14:22:36.635Z,99009.25
2023-04-04T14:25:20.454Z,99007.41
2023-04-04T14:28:06.145Z,99001.72
2023-04-04T14:30:51.252Z,98988.34
2023-04-04T14:33:35.212Z,99018.03
2023-04-04T14:36:21.667Z,99012.81
2023-04-04T14:39:05.633Z,99014.28
2023-04-04T14:41:49.584Z,99013.28
2023-04-04T14:44:35.449Z,99015.97
2023-04-04T14:47:19.470Z,99017.28
2023-04-04T14:50:04.292Z,99033.56
2023-04-04T14:52:51.218Z,99027.63
2023-04-04T14:55:35.081Z,99025.69
2023-04-04T14:58:18.995Z,99027.22
2023-04-04T15:01:04.718Z,99028.38
2023-04-04T15:03:48.969Z,99034.16
2023-04-04T15:06:36.311Z,99033.22
2023-04-04T15:09:20.172Z,99035.59
2023-04-04T15:12:04.173Z,99035.13
2023-04-04T15:14:47.969Z,99039.59
2023-04-04T15:17:33.174Z,99040.44
2023-04-04T15:20:17.438Z,99045.97
2023-04-04T15:23:01.173Z,99043.69
2023-04-04T15:25:45.063Z,99037.31
2023-04-04T15:28:29.662Z,99036.81
2023-04-04T15:31:15.004Z,99037.97
2023-04-04T15:34:03.967Z,99032.00
2023-04-04T15:36:50.120Z,99032.84
2023-04-04T15:39:39.735Z,98944.41
2023-04-04T15:42:29.825Z,99051.53
2023-04-04T15:45:14.731Z,99030.19
2023-04-04T15:47:58.520Z,99043.81
2023-04-04T15:50:43.733Z,99034.41
2023-04-04T15:53:27.603Z,99048.03
2023-04-04T15:56:11.377Z,99051.28
2023-04-04T15:58:55.901Z,99066.22
2023-04-04T16:01:40.899Z,99052.00
2023-04-04T16:04:24.756Z,99052.97
2023-04-04T16:07:10.162Z,99054.06
2023-04-04T16:09:53.961Z,99059.22
2023-04-04T16:12:37.771Z,99049.69
2023-04-04T16:15:21.920Z,99046.91
2023-04-04T16:18:05.736Z,99068.53
2023-04-04T16:20:49.535Z,99015.44
2023-04-04T16:23:34.932Z,99059.03
2023-04-04T16:26:18.701Z,99069.22
2023-04-04T16:29:03.498Z,99039.38
2023-04-04T16:31:47.506Z,99054.31
2023-04-04T16:34:31.859Z,99051.22
2023-04-04T16:37:16.891Z,99070.34
2023-04-04T16:40:02.414Z,99070.63
2023-04-04T16:42:47.324Z,99034.00
2023-04-04T16:45:32.146Z,99062.41
2023-04-04T16:48:16.617Z,99065.53
2023-04-04T16:51:00.959Z,99062.88
2023-04-04T16:53:44.919Z,99075.09
2023-04-04T16:56:31.374Z,99074.16
2023-04-04T16:59:17.465Z,99091.78
2023-04-04T17:02:02.624Z,99079.75
2023-04-04T17:04:47.744Z,99083.16
2023-04-04T17:07:32.573Z,99072.91
2023-04-04T17:10:17.369Z,99076.63
2023-04-04T17:13:03.740Z,99122.13
2023-04-04T17:15:49.077Z,99107.41
2023-04-04T17:18:34.876Z,99106.63
2023-04-04T17:21:20.433Z,99106.47
2023-04-04T17:24:05.567Z,99078.34
2023-04-04T17:26:50.461Z,99091.69
2023-04-04T17:29:37.031Z,99146.66
2023-04-04T17:32:22.497Z,99119.47
2023-04-04T17:35:08.758Z,99090.19
2023-04-04T17:37:53.818Z,99141.03
2023-04-04T17:40:41.288Z,99136.72
2023-04-04T17:43:26.454Z,99144.78
2023-04-04T17:46:12.933Z,99162.66
2023-04-04T17:48:58.019Z,99176.25
2023-04-04T17:51:43.012Z,99179.78
2023-04-04T17:54:29.131Z,99194.25
2023-04-04T17:57:14.259Z,99202.00
2023-04-04T17:59:59.340Z,99200.59
2023-04-04T18:02:46.104Z,99213.28
2023-04-04T18:05:30.602Z,99221.44
2023-04-04T18:08:15.309Z,99218.81
2023-04-04T18:11:00.569Z,99236.88
2023-04-04T18:13:45.906Z,99220.84
2023-04-04T18:16:31.948Z,99229.00
2023-04-04T18:19:21.013Z,99231.47
2023-04-04T18:22:06.113Z,99236.25
2023-04-04T18:24:51.206Z,99247.56
2023-04-04T18:27:36.138Z,99235.81
2023-04-04T18:30:21.141Z,99235.66
2023-04-04T18:33:06.703Z,99231.09
2023-04-04T18:35:52.958Z,99196.06
2023-04-04T18:38:37.849Z,99222.75
2023-04-04T18:41:23.021Z,99241.16
2023-04-04T18:44:10.247Z,99240.00
2023-04-04T18:46:55.319Z,99244.13
2023-04-04T18:49:40.453Z,99218.91
2023-04-04T18:52:27.795Z,99268.34
2023-04-04T18:55:13.361Z,99239.88
2023-04-04T18:57:58.406Z,99223.59
2023-04-04T19:00:43.876Z,99239.34
2023-04-04T19:03:29.101Z,99229.78
2023-04-04T19:06:14.159Z,99234.31
2023-04-04T19:09:04.749Z,99241.44
2023-04-04T19:11:50.121Z,99246.53
2023-04-04T19:14:35.271Z,99257.81
2023-04-04T19:17:20.638Z,99272.19
2023-04-04T19:20:06.240Z,99286.75
2023-04-04T19:22:51.523Z,99293.41
2023-04-04T19:25:38.193Z,99285.91
2023-04-04T19:28:23.589Z,99259.50
2023-04-04T19:31:12.052Z,99269.50
2023-04-04T19:33:57.840Z,99276.81
2023-04-04T19:36:43.562Z,99272.88
2023-04-04T19:39:34.399Z,99284.25
2023-04-04T19:42:28.213Z,99267.59
2023-04-04T19:45:14.931Z,99264.56
2023-04-04T19:47:59.608Z,99263.81
2023-04-04T19:50:44.610Z,99283.78
2023-04-04T19:53:31.240Z,99252.16
2023-04-04T19:56:17.636Z,99273.06
2023-04-04T19:59:09.088Z,99319.69
2023-04-04T20:02:00.537Z,99272.66
2023-04-04T20:04:45.797Z,99279.13
2023-04-04T20:07:31.139Z,99281.75
2023-04-04T20:10:38.395Z,99266.06
2023-04-04T20:13:23.498Z,99272.53
2023-04-04T20:16:12.337Z,99264.69
2023-04-04T20:18:59.937Z,99254.69
2023-04-04T20:21:44.958Z,99263.16
2023-04-04T20:24:31.000Z,99261.13
2023-04-04T20:27:25.138Z,99220.94
2023-04-04T20:30:14.305Z,99285.28
2023-04-04T20:33:01.867Z,99257.31
2023-04-04T20:35:46.965Z,99216.84
2023-04-04T20:38:32.175Z,99260.59
2023-04-04T20:41:20.287Z,99265.00
2023-04-04T20:44:05.249Z,99279.50
2023-04-04T20:46:50.576Z,99271.13
2023-04-04T20:49:36.271Z,99245.91
2023-04-04T20:52:25.150Z,99256.84
2023-04-04T20:55:10.583Z,99279.91
2023-04-04T20:57:58.695Z,99249.06
2023-04-04T21:00:43.770Z,99285.88
2023-04-04T21:03:37.957Z,99272.84
2023-04-04T21:06:31.030Z,99275.09
2023-04-04T21:09:15.700Z,99278.13
2023-04-04T21:12:01.845Z,99295.28
2023-04-04T21:14:47.000Z,99275.78
2023-04-04T21:17:31.812Z,99278.25
2023-04-04T21:20:18.224Z,99244.22
2023-04-04T21:23:07.363Z,99289.44
2023-04-04T21:25:52.420Z,99310.50
2023-04-04T21:28:39.656Z,99268.13
2023-04-04T21:31:26.934Z,99281.66
2023-04-04T21:34:17.211Z,99288.81
2023-04-04T21:37:03.382Z,99299.22
2023-04-04T21:39:50.154Z,99304.66
2023-04-04T21:42:34.218Z,99282.66
2023-04-04T21:45:18.491Z,99268.06
2023-04-04T21:48:02.763Z,99303.38
2023-04-04T21:50:47.135Z,99279.16
2023-04-04T21:53:31.278Z,99277.09
2023-04-04T21:56:16.935Z,99300.94
2023-04-04T21:59:02.066Z,99322.50
2023-04-04T22:01:45.975Z,99328.72
2023-04-04T22:04:29.851Z,99315.88
2023-04-04T22:07:13.709Z,99313.84
2023-04-04T22:09:58.894Z,99331.88
2023-04-04T22:12:46.936Z,99354.91
2023-04-04T22:15:30.856Z,99376.06
2023-04-04T22:18:15.935Z,99319.97
2023-04-04T22:21:03.197Z,99337.78
2023-04-04T22:23:46.909Z,99355.31
2023-04-04T22:26:32.644Z,99364.22
2023-04-04T22:29:17.905Z,99365.22
2023-04-04T22:32:01.830Z,99381.97
2023-04-04T22:34:45.833Z,99383.59
2023-04-04T22:37:30.678Z,99382.59
2023-04-04T22:40:14.582Z,99365.19
2023-04-04T22:42:58.700Z,99374.75
2023-04-04T22:45:43.950Z,99369.72
2023-04-04T22:48:30.848Z,99402.25
2023-04-04T22:51:15.293Z,99398.00
2023-04-04T22:53:59.066Z,99399.13
2023-04-04T22:56:43.081Z,99399.38
2023-04-04T22:59:27.161Z,99393.63
2023-04-04T23:02:12.334Z,99407.00
2023-04-04T23:04:58.572Z,99407.34
2023-04-04T23:07:43.461Z,99412.22
2023-04-04T23:10:27.583Z,99408.94
2023-04-04T23:13:11.604Z,99384.53
2023-04-04T23:15:55.711Z,99404.06
2023-04-04T23:18:43.802Z,99405.66
2023-04-04T23:21:28.942Z,99398.19
2023-04-04T23:24:12.774Z,99423.44
2023-04-04T23:26:56.777Z,99379.88
2023-04-04T23:29:40.580Z,99388.09
2023-04-04T23:32:24.564Z,99376.44
2023-04-04T23:35:11.433Z,99383.09
2023-04-04T23:37:55.287Z,99325.22
2023-04-04T23:40:39.218Z,99361.38
2023-04-04T23:43:23.482Z,99352.31
2023-04-04T23:46:07.564Z,99361.00
2023-04-04T23:48:51.420Z,99377.63
2023-04-04T23:51:39.085Z,99338.25
2023-04-04T23:54:23.502Z,99344.66
2023-04-04T23:57:07.321Z,99340.72
2023-04-04T23:59:51.074Z,99347.41
